Terminal Aerodrome Forecast
Issued by NWS

Home | Current Version | Previous Version | Text Only | Print | Product List | Glossary On
Versions: 1 2 3 4 5 6 7 8 9 10 11 12 13 14 15 16 17 18 19 20 21 22 23 24 25 26 27 28 29 30 31
000
FTUS45 KSLC 301938 AAB
TAF36U
TAF AMD
K36U 301938Z 3020/3118 21010KT 3SM -RA BR BKN020
     FM302100 21011KT P6SM VCSH SCT030 BKN050
     FM302300 01010KT 6SM -RA SCT015 BKN035
     FM310400 02010KT P6SM VCSH SCT020 BKN040=

USA.gov is the U.S. government's official web portal to all federal, state and local government web resources and services.